Time;durP1;ratioP1;P1;durP2;ratioP2;P2;SDS_P1;SDS_P2;PMS_P1;PMS_P2;Temp;Humidity;BMP_temperature;BMP_pressure;BME280_temperature;BME280_humidity;BME280_pressure;Samples;Min_cycle;Max_cycle;Signal;HPM_P1;HPM_P2
2021/12/31 00:03:55;;;;;;;2.13;1.20;;;;;;;7.39;63.64;93256.06;4897173;29;20075;-92
2021/12/31 00:07:20;;;;;;;1.75;1.17;;;;;;;7.47;64.00;93284.25;4897758;29;20050;-92
2021/12/31 00:14:26;;;;;;;;;;;;;;;;;;;;;
2021/12/31 00:17:47;;;;;;;1.73;1.25;;;;;;;7.20;64.84;93253.78;4829862;29;20050;-91
2021/12/31 00:24:41;;;;;;;;;;;;;;;;;;;;;
2021/12/31 00:31:47;;;;;;;;;;;;;;;;;;;;;
2021/12/31 00:38:20;;;;;;;3.22;1.20;;;;;;;7.52;65.01;93276.50;4849712;29;20050;-91
2021/12/31 00:45:40;;;;;;;;;;;;;;;;;;;;;
2021/12/31 00:49:14;;;;;;;;;;;;;;;;;;;;;
2021/12/31 00:56:24;;;;;;;1.15;0.80;;;;;;;6.97;64.40;93204.63;4862387;29;20101;-91
2021/12/31 00:59:36;;;;;;;1.02;0.70;;;;;;;7.01;64.59;93219.50;4846102;29;20057;-91
2021/12/31 01:05:45;;;;;;;2.28;1.08;;;;;;;7.40;64.60;93278.47;4873498;29;20041;-92
2021/12/31 01:08:40;;;;;;;;;;;;;;;;;;;;;
2021/12/31 01:11:46;;;;;;;;;;;;;;;;;;;;;
2021/12/31 01:22:11;;;;;;;;;;;;;;;;;;;;;
2021/12/31 01:28:39;;;;;;;0.85;0.70;;;;;;;7.12;64.14;93251.63;4843590;29;20465;-92
2021/12/31 01:31:38;;;;;;;1.05;0.80;;;;;;;7.07;64.63;93247.16;4844659;29;20054;-92
2021/12/31 01:34:35;;;;;;;1.50;0.85;;;;;;;7.11;64.17;93255.25;4828996;29;20185;-91
2021/12/31 01:37:37;;;;;;;1.45;0.90;;;;;;;7.18;64.05;93271.50;4862336;29;20415;-92
2021/12/31 01:58:33;;;;;;;0.70;0.70;;;;;;;7.05;63.33;93231.00;4807114;29;20062;-92
2021/12/31 02:01:54;;;;;;;;;;;;;;;;;;;;;
2021/12/31 02:12:58;;;;;;;;;;;;;;;7.49;63.01;93280.34;4666223;30;20077;-91
2021/12/31 02:20:17;;;;;;;2.42;1.15;;;;;;;7.38;63.22;93290.94;4752396;30;20055;-91
2021/12/31 02:27:00;;;;;;;1.70;1.33;;;;;;;7.18;63.66;93266.28;4752530;30;20453;-91
2021/12/31 02:30:30;;;;;;;;;;;;;;;;;;;;;
2021/12/31 02:33:43;;;;;;;1.25;0.80;;;;;;;7.20;62.75;93274.63;4793049;29;20053;-91
2021/12/31 02:40:00;;;;;;;1.00;0.75;;;;;;;6.87;62.76;93213.91;4861177;29;20542;-92
2021/12/31 02:43:04;;;;;;;;;;;;;;;;;;;;;
2021/12/31 02:46:11;;;;;;;0.70;0.70;;;;;;;6.98;62.80;93219.19;4859826;29;20041;-92
2021/12/31 02:56:20;;;;;;;1.27;0.88;;;;;;;7.30;62.43;93250.50;4860761;29;20060;-92
2021/12/31 03:02:38;;;;;;;;;;;;;;;;;;;;;
2021/12/31 03:09:27;;;;;;;;;;;;;;;;;;;;;
2021/12/31 03:12:48;;;;;;;1.88;1.10;;;;;;;6.80;62.52;93199.50;4862067;29;20480;-91
2021/12/31 03:30:48;;;;;;;;;;;;;;;;;;;;;
2021/12/31 03:45:11;;;;;;;;;;;;;;;;;;;;;
2021/12/31 04:00:20;;;;;;;;;;;;;;;;;;;;;
2021/12/31 04:14:28;;;;;;;;;;;;;;;;;;;;;
2021/12/31 04:32:40;;;;;;;0.77;0.70;;;;;;;6.87;58.41;93193.09;4882513;29;20101;-91
2021/12/31 04:36:03;;;;;;;;;;;;;;;;;;;;;
2021/12/31 04:39:29;;;;;;;;;;;;;;;;;;;;;
2021/12/31 04:42:18;;;;;;;;;;;;;;;;;;;;;
2021/12/31 04:44:57;;;;;;;0.55;0.55;;;;;;;7.26;57.91;93252.03;4881933;29;20041;-91
2021/12/31 04:48:26;;;;;;;;;;;;;;;;;;;;;
2021/12/31 04:55:26;;;;;;;;;;;;;;;;;;;;;
2021/12/31 04:59:04;;;;;;;;;;;;;;;;;;;;;
2021/12/31 05:02:06;;;;;;;0.85;0.60;;;;;;;6.96;56.09;93190.03;4880421;29;20061;-91
2021/12/31 05:04:47;;;;;;;0.60;0.60;;;;;;;6.95;55.78;93180.66;4882877;29;20067;-91
2021/12/31 05:07:58;;;;;;;0.82;0.80;;;;;;;6.99;55.59;93181.75;4875197;29;20555;-90
2021/12/31 05:11:27;;;;;;;;;;;;;;;;;;;;;
2021/12/31 05:21:08;;;;;;;0.52;0.52;;;;;;;7.00;56.02;93184.09;4869656;29;20053;-91
2021/12/31 05:24:06;;;;;;;0.45;0.45;;;;;;;7.05;54.93;93178.94;4850912;29;20045;-92
2021/12/31 05:27:24;;;;;;;0.80;0.70;;;;;;;7.10;55.66;93178.19;4869284;29;20764;-91
2021/12/31 05:30:09;;;;;;;0.55;0.55;;;;;;;7.08;56.21;93182.84;4865724;29;20067;-91
2021/12/31 05:43:23;;;;;;;0.43;0.43;;;;;;;7.30;55.42;93235.66;4872752;29;20406;-92
2021/12/31 05:46:49;;;;;;;;;;;;;;;;;;;;;
2021/12/31 05:57:21;;;;;;;;;;;;;;;;;;;;;
2021/12/31 06:00:31;;;;;;;1.30;0.60;;;;;;;7.04;51.27;93192.19;4870732;29;20830;-92
2021/12/31 06:06:48;;;;;;;1.38;0.55;;;;;;;6.99;51.40;93202.56;4860431;29;20097;-91
2021/12/31 06:13:59;;;;;;;;;;;;;;;;;;;;;
2021/12/31 06:20:25;;;;;;;0.50;0.50;;;;;;;7.10;50.23;93251.09;4878565;29;20822;-91
2021/12/31 06:23:37;;;;;;;3.10;0.50;;;;;;;6.87;49.49;93218.34;4855765;29;20403;-92
2021/12/31 06:26:56;;;;;;;;;;;;;;;;;;;;;
2021/12/31 06:30:07;;;;;;;2.35;0.75;;;;;;;7.05;49.21;93267.44;4879830;29;20045;-91
2021/12/31 06:33:25;;;;;;;;;;;;;;;;;;;;;
2021/12/31 06:36:27;;;;;;;;;;;;;;;;;;;;;
2021/12/31 06:39:46;;;;;;;;;;;;;;;;;;;;;
2021/12/31 06:46:11;;;;;;;0.73;0.60;;;;;;;6.54;49.98;93240.84;4862981;29;20122;-91
2021/12/31 06:49:19;;;;;;;;;;;;;;;;;;;;;
2021/12/31 06:52:13;;;;;;;0.45;0.45;;;;;;;6.48;50.44;93226.22;4880303;29;20048;-91
2021/12/31 06:55:02;;;;;;;0.95;0.60;;;;;;;6.83;49.81;93275.28;4874803;29;20501;-91
2021/12/31 07:02:24;;;;;;;0.40;0.40;;;;;;;6.85;49.50;93278.44;4861216;29;20376;-91
2021/12/31 07:05:33;;;;;;;;;;;;;;;;;;;;;
2021/12/31 07:11:24;;;;;;;;;;;;;;;;;;;;;
2021/12/31 07:14:11;;;;;;;0.57;0.50;;;;;;;6.77;51.99;93291.84;4881164;29;20048;-86
2021/12/31 07:16:45;;;;;;;1.15;0.60;;;;;;;6.58;51.91;93248.97;4858409;29;20476;-87
2021/12/31 07:19:22;;;;;;;0.57;0.50;;;;;;;6.90;51.77;93295.13;4868096;29;20040;-88
2021/12/31 07:21:53;;;;;;;1.02;0.63;;;;;;;6.61;51.77;93253.69;4874462;29;20044;-87
2021/12/31 07:24:35;;;;;;;0.50;0.50;;;;;;;6.65;51.43;93258.16;4876619;29;20123;-87
2021/12/31 07:27:33;;;;;;;;;;;;;;;;;;;;;
2021/12/31 07:30:12;;;;;;;0.57;0.57;;;;;;;7.37;50.11;93279.75;4891719;29;20045;-88
2021/12/31 07:32:51;;;;;;;0.82;0.80;;;;;;;9.48;46.28;93255.53;4876693;29;20500;-87
2021/12/31 07:35:57;;;;;;;;;;;;;;;;;;;;;
2021/12/31 07:38:48;;;;;;;0.98;0.88;;;;;;;14.68;35.22;93247.94;4866236;29;20063;-89
2021/12/31 07:45:41;;;;;;;1.27;0.90;;;;;;;18.84;29.47;93302.16;4829381;29;20092;-90
2021/12/31 07:49:29;;;;;;;0.88;0.70;;;;;;;20.54;27.97;93302.81;4804779;29;20083;-89
2021/12/31 07:56:18;;;;;;;0.85;0.70;;;;;;;22.95;24.15;93294.72;4841150;29;20075;-89
2021/12/31 08:06:39;;;;;;;0.55;0.55;;;;;;;26.27;20.16;93312.03;4879471;29;20092;-89
2021/12/31 09:18:52;;;;;;;2.90;1.80;;;;;;;29.42;17.33;93310.66;4881992;29;20404;-89
2021/12/31 09:30:09;;;;;;;1.48;0.90;;;;;;;29.88;15.58;93328.03;4883130;29;20085;-89
2021/12/31 09:37:13;;;;;;;2.03;1.15;;;;;;;27.23;17.75;93333.06;4881685;29;20089;-90
2021/12/31 09:44:14;;;;;;;2.53;1.45;;;;;;;24.68;21.10;93324.09;4882227;29;20044;-89
2021/12/31 09:57:59;;;;;;;1.67;1.05;;;;;;;23.20;21.83;93348.75;4881103;29;20048;-89
2021/12/31 10:00:41;;;;;;;1.40;1.00;;;;;;;23.05;21.43;93350.28;4850196;29;20448;-89
2021/12/31 10:07:24;;;;;;;0.80;0.60;;;;;;;23.33;21.19;93321.94;4861915;29;20049;-90
2021/12/31 10:14:10;;;;;;;0.80;0.50;;;;;;;23.37;20.56;93349.53;4880248;29;20052;-89
2021/12/31 10:16:39;;;;;;;2.30;1.42;;;;;;;23.38;22.11;93340.41;4877810;29;20080;-89
2021/12/31 10:19:08;;;;;;;2.05;1.20;;;;;;;23.52;21.63;93335.38;4862408;29;20133;-89
2021/12/31 10:21:51;;;;;;;2.22;1.10;;;;;;;22.99;21.59;93340.16;4877454;29;20048;-89
2021/12/31 10:28:27;;;;;;;1.75;1.10;;;;;;;21.76;22.81;93330.69;4863525;29;20070;-89
2021/12/31 10:34:30;;;;;;;4.80;1.70;;;;;;;20.87;25.90;93331.28;4877198;29;20045;-89
2021/12/31 10:37:01;;;;;;;1.95;1.25;;;;;;;20.98;25.58;93332.44;4862699;29;20052;-88
2021/12/31 10:39:39;;;;;;;;;;;;;;;;;;;;;
2021/12/31 10:46:11;;;;;;;3.40;1.30;;;;;;;20.67;23.79;93310.84;4861017;29;20046;-88
2021/12/31 10:48:40;;;;;;;4.18;1.35;;;;;;;20.00;24.69;93272.81;4895051;29;20040;-88
2021/12/31 10:51:10;;;;;;;1.52;1.10;;;;;;;20.18;25.65;93308.78;4894531;29;20052;-88
2021/12/31 10:53:37;;;;;;;2.20;1.27;;;;;;;20.65;26.39;93321.03;4880373;29;20099;-89
2021/12/31 10:56:16;;;;;;;1.83;1.17;;;;;;;20.64;25.05;93298.22;4897500;29;20033;-90
2021/12/31 10:59:14;;;;;;;2.35;1.33;;;;;;;19.20;27.71;93277.06;4882211;29;20036;-90
2021/12/31 11:02:52;;;;;;;2.17;1.20;;;;;;;19.86;27.96;93324.34;4897254;29;20104;-89
2021/12/31 11:05:35;;;;;;;2.90;1.27;;;;;;;19.75;25.85;93305.34;4897797;29;20070;-90
2021/12/31 11:08:43;;;;;;;4.28;1.10;;;;;;;19.48;26.79;93303.16;4898306;29;20043;-89
2021/12/31 11:11:28;;;;;;;2.28;1.20;;;;;;;18.31;27.47;93284.81;4869397;29;20051;-89
2021/12/31 11:14:18;;;;;;;;;;;;;;;;;;;;;
2021/12/31 11:17:10;;;;;;;2.00;1.00;;;;;;;18.59;27.70;93308.31;4878331;29;20057;-90
2021/12/31 11:20:47;;;;;;;3.60;1.20;;;;;;;18.49;27.07;93291.66;4878882;29;20517;-89
2021/12/31 11:26:48;;;;;;;1.58;0.80;;;;;;;18.80;26.19;93314.53;4877008;29;20045;-89
2021/12/31 11:29:19;;;;;;;1.88;0.98;;;;;;;18.23;25.61;93290.91;4867400;29;20045;-88
2021/12/31 11:32:20;;;;;;;1.67;0.80;;;;;;;17.78;27.77;93285.91;4882878;29;20634;-90
2021/12/31 11:35:31;;;;;;;2.47;1.23;;;;;;;18.42;28.03;93327.69;4897863;29;20405;-90
2021/12/31 11:38:03;;;;;;;1.38;0.93;;;;;;;18.22;28.09;93313.97;4888470;29;20037;-91
2021/12/31 11:40:36;;;;;;;2.83;1.50;;;;;;;18.42;30.60;93327.69;4879161;29;20109;-90
2021/12/31 11:43:24;;;;;;;;;;;;;;;;;;;;;
2021/12/31 11:46:25;;;;;;;;;;;;;;;;;;;;;
2021/12/31 11:49:20;;;;;;;;;;;;;;;;;;;;;
2021/12/31 11:52:13;;;;;;;;;;;;;;;;;;;;;
2021/12/31 11:55:23;;;;;;;2.22;1.20;;;;;;;18.38;28.62;93311.63;4861660;29;20517;-90
2021/12/31 11:58:35;;;;;;;;;;;;;;;18.42;30.11;93307.25;4860238;29;20047;-91
2021/12/31 12:01:47;;;;;;;5.47;1.65;;;;;;;17.87;32.20;93257.59;4898698;29;20414;-90
2021/12/31 12:04:54;;;;;;;;;;;;;;;;;;;;;
2021/12/31 12:15:22;;;;;;;2.50;1.40;;;;;;;17.84;32.96;93256.34;4825941;29;20049;-90
2021/12/31 12:18:52;;;;;;;3.47;1.70;;;;;;;18.08;34.00;93282.34;4878996;29;20525;-90
2021/12/31 12:25:26;;;;;;;3.28;1.73;;;;;;;18.29;33.66;93284.34;4879487;29;20060;-90
2021/12/31 12:28:10;;;;;;;4.07;1.77;;;;;;;17.94;33.37;93271.13;4874120;29;20077;-89
2021/12/31 12:30:52;;;;;;;3.72;1.60;;;;;;;17.44;34.24;93227.31;4891428;29;20044;-87
2021/12/31 12:33:27;;;;;;;2.65;1.50;;;;;;;17.38;32.29;93217.19;4877591;29;20483;-86
2021/12/31 12:36:03;;;;;;;3.08;1.50;;;;;;;18.16;30.84;93213.78;4876379;29;20053;-88
2021/12/31 12:38:42;;;;;;;2.70;1.50;;;;;;;18.84;30.56;93241.16;4863922;29;20064;-88
2021/12/31 12:41:25;;;;;;;3.25;1.60;;;;;;;18.36;31.81;93244.13;4879681;29;20067;-88
2021/12/31 12:44:08;;;;;;;3.10;1.67;;;;;;;18.50;32.73;93197.75;4864935;29;20052;-87
2021/12/31 12:47:25;;;;;;;;;;;;;;;;;;;;;
2021/12/31 12:50:21;;;;;;;4.80;2.10;;;;;;;17.82;34.81;93207.44;4870082;29;20037;-88
2021/12/31 12:53:07;;;;;;;3.90;1.88;;;;;;;17.98;35.13;93248.22;4851685;29;20507;-88
2021/12/31 12:59:26;;;;;;;3.30;1.70;;;;;;;17.35;33.99;93194.03;4887890;29;20036;-88
2021/12/31 13:02:23;;;;;;;;;;;;;;;;;;;;;
2021/12/31 13:05:17;;;;;;;3.35;1.88;;;;;;;17.59;34.73;93218.16;4885930;29;20048;-88
2021/12/31 13:07:53;;;;;;;3.15;1.70;;;;;;;17.58;34.64;93215.81;4855904;29;20076;-89
2021/12/31 13:14:48;;;;;;;3.85;2.10;;;;;;;17.55;36.67;93242.91;4825946;29;20489;-90
2021/12/31 13:17:56;;;;;;;3.30;1.80;;;;;;;17.92;35.62;93240.75;4838913;29;20488;-88
2021/12/31 13:20:25;;;;;;;3.13;1.73;;;;;;;17.69;35.57;93233.72;4865671;29;20121;-88
2021/12/31 13:26:46;;;;;;;;;;;;;;;;;;;;;
2021/12/31 13:29:32;;;;;;;3.42;1.67;;;;;;;17.92;33.58;93198.38;4882027;29;20041;-87
2021/12/31 13:32:19;;;;;;;3.60;1.70;;;;;;;17.27;34.34;93185.00;4865442;29;20064;-89
2021/12/31 13:35:10;;;;;;;3.67;1.73;;;;;;;17.32;34.51;93181.41;4880989;29;20099;-87
2021/12/31 13:38:06;;;;;;;3.47;1.70;;;;;;;17.19;34.31;93191.81;4880993;29;20104;-87
2021/12/31 13:40:54;;;;;;;4.00;1.80;;;;;;;17.68;33.85;93210.22;4880531;29;20045;-87
2021/12/31 13:43:37;;;;;;;;;;;;;;;;;;;;;
2021/12/31 13:46:49;;;;;;;3.83;1.77;;;;;;;18.42;31.88;93184.56;4900494;29;20050;-87
2021/12/31 13:49:34;;;;;;;;;;;;;;;;;;;;;
2021/12/31 13:52:48;;;;;;;3.80;1.60;;;;;;;18.66;31.28;93208.59;4881818;29;20041;-87
2021/12/31 13:55:31;;;;;;;2.67;1.42;;;;;;;18.32;31.00;93201.56;4864841;29;20041;-88
2021/12/31 13:58:03;;;;;;;2.55;1.42;;;;;;;18.04;32.04;93212.53;4882004;29;20120;-88
2021/12/31 14:00:35;;;;;;;4.38;1.80;;;;;;;17.42;31.97;93166.00;4849560;29;20047;-88
2021/12/31 14:03:43;;;;;;;3.35;1.50;;;;;;;17.59;31.02;93220.81;4881067;29;20033;-88
2021/12/31 14:06:24;;;;;;;2.97;1.52;;;;;;;17.78;31.74;93223.13;4864750;29;20055;-87
2021/12/31 14:13:11;;;;;;;3.30;1.67;;;;;;;18.90;29.57;93178.13;4879509;29;20048;-90
2021/12/31 14:19:56;;;;;;;;;;;;;;;;;;;;;
2021/12/31 14:22:40;;;;;;;3.28;1.73;;;;;;;19.43;29.76;93207.75;4864460;29;20075;-88
2021/12/31 14:25:26;;;;;;;;;;;;;;;;;;;;;
2021/12/31 14:28:13;;;;;;;2.75;1.48;;;;;;;19.67;30.01;93207.09;4880269;29;20047;-89
2021/12/31 14:31:12;;;;;;;;;;;;;;;;;;;;;
2021/12/31 14:33:47;;;;;;;3.78;1.60;;;;;;;19.72;28.38;93218.34;4864263;29;20048;-86
2021/12/31 14:36:58;;;;;;;2.33;1.35;;;;;;;18.74;29.61;93220.28;4881833;29;20063;-88
2021/12/31 14:39:51;;;;;;;3.20;1.50;;;;;;;18.59;29.50;93220.81;4899186;29;20049;-88
2021/12/31 14:42:26;;;;;;;3.47;1.85;;;;;;;18.55;29.94;93249.06;4890516;29;20830;-88
2021/12/31 14:45:07;;;;;;;;;;;;;;;;;;;;;
2021/12/31 14:48:01;;;;;;;4.80;1.90;;;;;;;17.20;32.56;93195.25;4902884;29;20035;-88
2021/12/31 14:51:24;;;;;;;;;;;;;;;;;;;;;
2021/12/31 14:58:06;;;;;;;4.10;1.90;;;;;;;16.20;33.83;93196.63;4830814;29;20058;-87
2021/12/31 15:01:38;;;;;;;;;;;;;;;;;;;;;
2021/12/31 15:05:16;;;;;;;;;;;;;;;;;;;;;
2021/12/31 15:08:28;;;;;;;2.83;1.60;;;;;;;14.72;37.06;93230.47;4838254;29;20046;-88
2021/12/31 15:11:38;;;;;;;;;;;;;;;;;;;;;
2021/12/31 15:15:14;;;;;;;3.65;1.50;;;;;;;13.93;37.70;93226.03;4888993;29;20046;-88
2021/12/31 15:21:05;;;;;;;6.65;1.80;;;;;;;13.64;39.72;93275.44;4837850;29;20554;-88
2021/12/31 15:23:42;;;;;;;2.85;1.50;;;;;;;13.59;40.31;93299.19;4882894;29;20509;-87
2021/12/31 15:26:21;;;;;;;;;;;;;;;;;;;;;
2021/12/31 15:29:06;;;;;;;;;;;;;;;;;;;;;
2021/12/31 15:33:02;;;;;;;;;;;;;;;;;;;;;
2021/12/31 15:40:26;;;;;;;10.80;2.10;;;;;;;12.03;42.79;93203.22;4791474;29;20052;-88
2021/12/31 15:43:55;;;;;;;6.00;2.95;;;;;;;11.88;43.26;93223.28;4839120;29;20644;-88
2021/12/31 15:47:15;;;;;;;4.00;2.05;;;;;;;11.65;42.71;93208.25;4810834;29;20085;-87
2021/12/31 15:50:12;;;;;;;3.47;1.70;;;;;;;11.92;42.32;93267.34;4811829;29;20046;-87
2021/12/31 15:59:51;;;;;;;;;;;;;;;;;;;;;
2021/12/31 16:07:05;;;;;;;11.20;2.25;;;;;;;10.89;43.26;93238.31;4876594;29;20048;-86
2021/12/31 16:12:52;;;;;;;3.33;1.88;;;;;;;10.59;43.01;93232.16;4874691;29;20052;-86
2021/12/31 16:15:40;;;;;;;;;;;;;;;;;;;;;
2021/12/31 16:18:50;;;;;;;3.63;1.73;;;;;;;10.95;41.65;93273.94;4881980;29;20067;-88
2021/12/31 16:21:21;;;;;;;7.20;3.63;;;;;;;10.55;43.29;93224.06;4871036;29;20045;-87
2021/12/31 16:24:23;;;;;;;6.70;2.92;;;;;;;10.33;43.04;93220.97;4898478;29;20131;-88
2021/12/31 16:27:22;;;;;;;2.85;1.48;;;;;;;10.32;42.74;93256.06;4869818;29;20047;-89
2021/12/31 16:30:09;;;;;;;2.15;1.20;;;;;;;10.11;42.63;93240.38;4880610;29;20402;-87
2021/12/31 16:32:52;;;;;;;2.92;1.40;;;;;;;10.06;42.71;93242.97;4849040;29;20139;-87
2021/12/31 16:35:40;;;;;;;3.58;1.60;;;;;;;10.29;42.96;93293.22;4874079;29;20134;-88
2021/12/31 16:38:23;;;;;;;;;;;;;;;;;;;;;
2021/12/31 16:41:46;;;;;;;3.47;1.70;;;;;;;9.83;44.00;93260.00;4840562;29;20195;-89
2021/12/31 16:44:22;;;;;;;3.70;1.85;;;;;;;9.62;44.15;93248.78;4862209;29;20056;-88
2021/12/31 16:47:00;;;;;;;4.05;2.22;;;;;;;9.52;44.10;93253.97;4900926;29;20501;-87
2021/12/31 17:02:00;;;;;;;4.00;2.10;;;;;;;9.49;44.14;93298.94;4788625;30;20086;-87
2021/12/31 17:08:31;;;;;;;3.05;1.67;;;;;;;9.34;43.73;93294.44;4882666;29;20040;-87
2021/12/31 17:10:57;;;;;;;2.88;1.60;;;;;;;9.31;44.14;93294.97;4865610;29;20052;-88
2021/12/31 17:13:22;;;;;;;3.60;1.60;;;;;;;9.27;44.49;93302.53;4835063;29;20033;-87
2021/12/31 17:54:16;;;;;;;4.32;2.40;;;;;;;8.73;46.70;93315.91;4843887;29;20136;-88
2021/12/31 17:57:25;;;;;;;7.57;2.20;;;;;;;8.83;46.50;93341.31;4869029;29;20492;-91
2021/12/31 18:00:35;;;;;;;;;;;;;;;;;;;;;
2021/12/31 18:03:33;;;;;;;4.15;2.40;;;;;;;8.36;46.42;93280.22;4858303;29;20069;-88
2021/12/31 18:06:23;;;;;;;3.80;1.90;;;;;;;8.43;46.52;93299.06;4847312;29;20045;-88
2021/12/31 18:09:04;;;;;;;;;;;;;;;;;;;;;
2021/12/31 18:11:35;;;;;;;4.47;1.80;;;;;;;8.31;47.16;93304.44;4875720;29;20046;-87
2021/12/31 18:14:20;;;;;;;11.27;5.00;;;;;;;8.19;47.11;93290.00;4842476;29;20046;-87
2021/12/31 18:23:28;;;;;;;2.95;1.45;;;;;;;8.50;46.45;93349.19;4884681;29;20415;-81
2021/12/31 18:25:53;;;;;;;2.70;1.50;;;;;;;8.46;46.97;93344.75;4877070;29;20036;-76
2021/12/31 18:28:20;;;;;;;4.15;2.00;;;;;;;8.46;46.79;93348.13;4842929;29;20040;-76
2021/12/31 18:30:45;;;;;;;2.90;1.50;;;;;;;8.45;46.57;93345.78;4842709;29;20048;-76
2021/12/31 18:33:11;;;;;;;2.65;1.50;;;;;;;8.43;47.32;93351.25;4871064;29;20045;-76
2021/12/31 18:35:36;;;;;;;4.93;2.35;;;;;;;8.44;47.05;93352.03;4858133;29;20062;-77
2021/12/31 18:38:03;;;;;;;4.78;2.50;;;;;;;8.39;46.73;93352.75;4856200;29;20131;-76
2021/12/31 18:40:29;;;;;;;3.13;1.73;;;;;;;8.35;46.88;93356.91;4843329;29;20037;-76
2021/12/31 18:42:55;;;;;;;2.83;1.50;;;;;;;8.35;46.39;93364.72;4874201;29;20048;-76
2021/12/31 18:45:21;;;;;;;2.38;1.30;;;;;;;8.37;46.51;93360.03;4859664;29;20084;-76
2021/12/31 18:47:51;;;;;;;2.33;1.27;;;;;;;8.34;46.40;93360.56;4872855;29;20042;-76
2021/12/31 18:50:22;;;;;;;2.60;1.50;;;;;;;8.34;46.79;93357.94;4860012;29;20129;-75
2021/12/31 18:52:50;;;;;;;2.92;1.67;;;;;;;8.35;46.40;93356.91;4866087;29;20041;-76
2021/12/31 18:55:16;;;;;;;2.03;1.30;;;;;;;8.32;47.02;93360.00;4862393;29;20076;-76
2021/12/31 18:57:42;;;;;;;7.13;1.65;;;;;;;8.33;47.58;93361.56;4843007;29;20508;-75
2021/12/31 19:00:08;;;;;;;6.07;3.60;;;;;;;8.29;47.77;93357.91;4843219;29;20057;-76
2021/12/31 19:02:34;;;;;;;5.40;3.13;;;;;;;8.26;47.11;93356.59;4873691;29;20030;-76
2021/12/31 19:05:00;;;;;;;7.13;4.00;;;;;;;8.24;46.78;93365.69;4857633;29;20052;-76
2021/12/31 19:07:26;;;;;;;6.15;3.38;;;;;;;8.22;46.78;93367.75;4859677;29;20033;-77
2021/12/31 19:09:52;;;;;;;4.78;2.58;;;;;;;8.22;47.38;93357.31;4873474;29;20288;-76
2021/12/31 19:12:18;;;;;;;8.50;4.47;;;;;;;8.20;46.83;93372.47;4859432;29;20041;-76
2021/12/31 19:14:45;;;;;;;8.82;4.70;;;;;;;8.14;46.98;93367.19;4858002;29;20034;-76
2021/12/31 19:17:10;;;;;;;5.72;3.50;;;;;;;8.16;47.39;93368.78;4858028;29;20112;-77
2021/12/31 19:19:38;;;;;;;5.53;2.78;;;;;;;8.16;46.76;93373.97;4858545;29;20169;-77
2021/12/31 19:22:05;;;;;;;5.72;2.85;;;;;;;8.17;46.90;93371.09;4856770;29;20460;-76
2021/12/31 19:24:33;;;;;;;6.03;2.78;;;;;;;8.14;46.59;93372.41;4857024;29;20081;-76
2021/12/31 19:26:58;;;;;;;5.75;2.97;;;;;;;8.14;46.60;93369.78;4856124;29;20049;-77
2021/12/31 19:29:24;;;;;;;6.90;2.63;;;;;;;8.14;47.21;93367.19;4862782;29;20400;-77
2021/12/31 19:31:50;;;;;;;3.35;1.77;;;;;;;8.14;47.36;93369.78;4845396;29;20097;-77
2021/12/31 19:34:15;;;;;;;3.33;1.98;;;;;;;8.16;47.23;93373.97;4862243;29;20116;-77
2021/12/31 19:36:41;;;;;;;3.33;1.85;;;;;;;8.15;47.04;93370.59;4863971;29;20072;-78
2021/12/31 19:39:06;;;;;;;2.67;1.45;;;;;;;8.14;46.93;93377.63;4881998;29;20068;-79
2021/12/31 19:41:32;;;;;;;3.25;1.50;;;;;;;8.17;46.86;93370.31;4862767;29;20060;-79
2021/12/31 19:43:59;;;;;;;2.08;1.10;;;;;;;8.21;46.59;93379.22;4864859;29;20089;-79
2021/12/31 19:46:25;;;;;;;1.50;1.00;;;;;;;8.19;46.93;93370.88;4862629;29;20109;-78
2021/12/31 19:48:51;;;;;;;11.55;7.35;;;;;;;8.20;46.54;93372.47;4845614;29;20041;-78
2021/12/31 19:51:17;;;;;;;6.13;3.65;;;;;;;8.17;45.81;93371.09;4876237;29;20043;-77
2021/12/31 19:53:43;;;;;;;7.07;3.90;;;;;;;8.19;45.70;93371.66;4844221;29;20488;-77
2021/12/31 19:56:08;;;;;;;8.80;4.40;;;;;;;8.21;44.88;93371.41;4861039;29;20049;-78
2021/12/31 19:58:34;;;;;;;8.20;5.20;;;;;;;8.19;44.82;93373.47;4845430;29;20109;-77
2021/12/31 20:00:59;;;;;;;12.85;8.88;;;;;;;8.18;44.87;93366.69;4860254;29;20038;-78
2021/12/31 20:03:25;;;;;;;9.43;6.05;;;;;;;8.17;44.78;93359.91;4875283;29;20041;-78
2021/12/31 20:05:51;;;;;;;8.27;4.15;;;;;;;8.14;44.41;93356.75;4876032;29;20084;-78
2021/12/31 20:08:16;;;;;;;13.73;7.32;;;;;;;8.09;43.85;93354.09;4876900;29;20057;-78
2021/12/31 20:10:42;;;;;;;17.88;10.07;;;;;;;8.11;43.61;93362.47;4872553;29;20551;-78
2021/12/31 20:13:09;;;;;;;11.82;6.68;;;;;;;8.10;44.00;93363.50;4843961;29;20037;-78
2021/12/31 20:15:36;;;;;;;11.07;6.93;;;;;;;8.10;43.99;93365.31;4845067;29;20038;-78
2021/12/31 20:18:03;;;;;;;11.07;4.40;;;;;;;8.07;43.64;93361.41;4861655;29;20048;-79
2021/12/31 20:20:28;;;;;;;8.85;5.53;;;;;;;8.08;43.36;93364.78;4859891;29;20089;-78
2021/12/31 20:22:55;;;;;;;4.32;2.30;;;;;;;8.08;43.03;93365.59;4861276;29;20141;-78
2021/12/31 20:25:21;;;;;;;7.28;3.92;;;;;;;8.15;42.51;93362.78;4876435;29;20033;-78
2021/12/31 20:27:50;;;;;;;13.95;7.47;;;;;;;8.20;42.27;93369.84;4868734;29;20033;-78
2021/12/31 20:30:16;;;;;;;15.57;6.50;;;;;;;8.18;42.77;93362.25;4862541;29;20511;-78
2021/12/31 20:32:43;;;;;;;8.02;3.58;;;;;;;8.14;43.01;93358.56;4862036;29;20045;-78
2021/12/31 20:35:11;;;;;;;6.95;3.60;;;;;;;8.10;42.90;93358.28;4876922;29;20052;-78
2021/12/31 20:37:37;;;;;;;7.15;3.63;;;;;;;8.10;42.75;93362.72;4864780;29;20068;-77
2021/12/31 20:40:05;;;;;;;5.57;3.17;;;;;;;8.07;42.54;93361.41;4865132;29;20550;-78
2021/12/31 20:42:32;;;;;;;6.05;3.38;;;;;;;8.06;42.38;93354.63;4866676;29;20101;-78
2021/12/31 20:44:57;;;;;;;6.35;2.97;;;;;;;8.12;42.14;93363.25;4879774;29;20053;-78
2021/12/31 20:47:23;;;;;;;6.93;4.60;;;;;;;8.12;42.24;93358.03;4867007;29;20030;-78
2021/12/31 20:49:49;;;;;;;7.00;2.72;;;;;;;8.11;42.56;93357.25;4865887;29;20083;-79
2021/12/31 20:52:15;;;;;;;3.70;1.70;;;;;;;8.07;42.57;93353.56;4877335;29;20501;-80
2021/12/31 20:54:41;;;;;;;8.05;3.60;;;;;;;8.07;42.46;93355.41;4863684;29;20045;-80
2021/12/31 20:57:06;;;;;;;12.00;6.68;;;;;;;8.09;42.95;93361.16;4846448;29;20053;-80
2021/12/31 20:59:33;;;;;;;10.45;4.45;;;;;;;8.05;43.53;93350.41;4878389;29;20042;-79
2021/12/31 21:01:59;;;;;;;9.15;4.20;;;;;;;8.01;43.66;93357.16;4863263;29;20042;-79
2021/12/31 21:04:24;;;;;;;8.93;3.72;;;;;;;7.97;43.27;93361.31;4845319;29;20814;-79
2021/12/31 21:06:50;;;;;;;10.68;4.97;;;;;;;7.93;42.97;93352.41;4861789;29;20038;-79
2021/12/31 21:09:16;;;;;;;8.57;4.00;;;;;;;7.94;43.20;93351.38;4863759;29;20052;-80
2021/12/31 21:11:42;;;;;;;6.93;3.50;;;;;;;7.95;43.19;93352.97;4878502;29;20101;-80
2021/12/31 21:14:08;;;;;;;13.80;5.60;;;;;;;7.97;43.38;93350.91;4864131;29;20462;-80
2021/12/31 21:16:33;;;;;;;9.55;3.92;;;;;;;7.96;43.76;93349.31;4862125;29;20034;-80
2021/12/31 21:18:59;;;;;;;7.40;3.45;;;;;;;7.91;43.96;93352.66;4863246;29;20037;-80
2021/12/31 21:21:25;;;;;;;8.80;3.35;;;;;;;7.88;44.30;93357.56;4859285;29;20077;-80
2021/12/31 21:23:51;;;;;;;5.43;2.28;;;;;;;7.84;44.40;93356.50;4846437;29;20528;-81
2021/12/31 21:26:16;;;;;;;5.78;2.63;;;;;;;7.85;43.82;93355.47;4858203;29;20065;-81
2021/12/31 21:28:42;;;;;;;6.75;3.20;;;;;;;7.84;44.09;93356.50;4862341;29;20042;-81
2021/12/31 21:31:09;;;;;;;6.57;2.58;;;;;;;7.86;43.83;93351.84;4865937;29;20045;-81
2021/12/31 21:33:38;;;;;;;5.45;2.70;;;;;;;7.87;43.65;93356.00;4866766;29;20081;-82
2021/12/31 21:36:04;;;;;;;11.57;5.25;;;;;;;7.82;43.41;93343.72;4860769;29;20089;-82
2021/12/31 21:38:30;;;;;;;10.27;4.40;;;;;;;7.83;43.11;93344.50;4874101;29;20053;-81
2021/12/31 21:40:56;;;;;;;10.63;3.80;;;;;;;7.82;43.23;93348.16;4865712;29;20411;-82
2021/12/31 21:43:21;;;;;;;8.52;3.80;;;;;;;7.77;43.59;93346.28;4862081;29;20042;-81
2021/12/31 21:45:47;;;;;;;5.90;2.78;;;;;;;7.79;43.02;93343.41;4864673;29;20034;-81
2021/12/31 21:48:13;;;;;;;4.05;1.77;;;;;;;7.86;42.29;93347.41;4864762;29;20536;-82
2021/12/31 21:50:39;;;;;;;3.97;1.50;;;;;;;7.94;41.10;93346.16;4863015;29;20085;-82
2021/12/31 21:53:06;;;;;;;5.97;2.30;;;;;;;7.98;41.20;93351.69;4865192;29;20037;-81
2021/12/31 21:55:31;;;;;;;5.28;2.25;;;;;;;7.94;41.84;93348.75;4846966;29;20052;-82
2021/12/31 21:57:58;;;;;;;3.50;1.70;;;;;;;7.88;41.58;93347.94;4865562;29;20033;-79
2021/12/31 22:00:25;;;;;;;5.00;2.28;;;;;;;7.88;41.79;93341.94;4860911;29;20025;-81
2021/12/31 22:02:51;;;;;;;2.95;1.58;;;;;;;7.88;41.86;93339.31;4863767;29;20647;-81
2021/12/31 22:05:18;;;;;;;3.80;1.67;;;;;;;7.87;41.40;93333.31;4861028;29;20048;-81
2021/12/31 22:07:44;;;;;;;4.60;1.90;;;;;;;7.93;41.79;93344.59;4863239;29;20038;-78
2021/12/31 22:10:09;;;;;;;3.05;1.63;;;;;;;7.92;41.42;93337.78;4862169;29;20381;-80
2021/12/31 22:12:35;;;;;;;3.67;1.40;;;;;;;7.90;41.67;93339.88;4874013;29;20041;-80
2021/12/31 22:15:02;;;;;;;2.58;1.30;;;;;;;7.87;41.64;93338.53;4843245;29;20102;-80
2021/12/31 22:17:28;;;;;;;3.25;1.60;;;;;;;7.85;41.09;93338.00;4844500;29;20045;-80
2021/12/31 22:19:54;;;;;;;2.97;1.50;;;;;;;7.84;41.25;93335.66;4857510;29;20029;-81